sensor_id;sensor_type;location;lat;lon;timestamp;P1;durP1;ratioP1;P2;durP2;ratioP2
22531;SDS011;11432;46.924;7.114;2024-01-30T00:02:14;13.93;;;8.55;;
22531;SDS011;11432;46.924;7.114;2024-01-30T00:04:40;11.80;;;8.38;;
22531;SDS011;11432;46.924;7.114;2024-01-30T00:07:06;12.13;;;8.23;;
22531;SDS011;11432;46.924;7.114;2024-01-30T00:09:31;12.20;;;8.70;;
22531;SDS011;11432;46.924;7.114;2024-01-30T00:11:57;11.77;;;7.88;;
22531;SDS011;11432;46.924;7.114;2024-01-30T00:14:22;12.95;;;8.25;;
22531;SDS011;11432;46.924;7.114;2024-01-30T00:16:48;13.27;;;7.95;;
22531;SDS011;11432;46.924;7.114;2024-01-30T00:19:14;15.27;;;8.27;;
22531;SDS011;11432;46.924;7.114;2024-01-30T00:21:39;12.32;;;7.75;;
22531;SDS011;11432;46.924;7.114;2024-01-30T00:24:06;12.77;;;8.77;;
22531;SDS011;11432;46.924;7.114;2024-01-30T00:26:31;11.23;;;7.65;;
22531;SDS011;11432;46.924;7.114;2024-01-30T00:28:57;12.50;;;7.90;;
22531;SDS011;11432;46.924;7.114;2024-01-30T00:31:22;13.77;;;8.25;;
22531;SDS011;11432;46.924;7.114;2024-01-30T00:33:48;11.55;;;8.27;;
22531;SDS011;11432;46.924;7.114;2024-01-30T00:36:14;14.02;;;8.27;;
22531;SDS011;11432;46.924;7.114;2024-01-30T00:38:39;11.85;;;7.90;;
22531;SDS011;11432;46.924;7.114;2024-01-30T00:41:06;13.43;;;7.55;;
22531;SDS011;11432;46.924;7.114;2024-01-30T00:43:33;11.07;;;7.55;;
22531;SDS011;11432;46.924;7.114;2024-01-30T00:45:58;14.25;;;8.48;;
22531;SDS011;11432;46.924;7.114;2024-01-30T00:48:24;10.68;;;8.18;;
22531;SDS011;11432;46.924;7.114;2024-01-30T00:50:50;10.65;;;7.90;;
22531;SDS011;11432;46.924;7.114;2024-01-30T00:53:16;12.18;;;7.72;;
22531;SDS011;11432;46.924;7.114;2024-01-30T00:55:41;9.90;;;7.57;;
22531;SDS011;11432;46.924;7.114;2024-01-30T00:58:08;11.65;;;7.95;;
22531;SDS011;11432;46.924;7.114;2024-01-30T01:00:34;12.77;;;7.38;;
22531;SDS011;11432;46.924;7.114;2024-01-30T01:02:59;10.70;;;7.22;;
22531;SDS011;11432;46.924;7.114;2024-01-30T01:05:25;10.02;;;6.68;;
22531;SDS011;11432;46.924;7.114;2024-01-30T01:07:51;9.02;;;6.85;;
22531;SDS011;11432;46.924;7.114;2024-01-30T01:10:16;10.50;;;6.97;;
22531;SDS011;11432;46.924;7.114;2024-01-30T01:12:43;10.60;;;7.00;;
22531;SDS011;11432;46.924;7.114;2024-01-30T01:15:09;13.45;;;6.97;;
22531;SDS011;11432;46.924;7.114;2024-01-30T01:17:35;11.98;;;6.70;;
22531;SDS011;11432;46.924;7.114;2024-01-30T01:20:02;9.45;;;6.60;;
22531;SDS011;11432;46.924;7.114;2024-01-30T01:22:28;9.80;;;6.70;;
22531;SDS011;11432;46.924;7.114;2024-01-30T01:24:54;10.00;;;5.35;;
22531;SDS011;11432;46.924;7.114;2024-01-30T01:27:20;8.73;;;6.35;;
22531;SDS011;11432;46.924;7.114;2024-01-30T01:29:46;11.30;;;5.95;;
22531;SDS011;11432;46.924;7.114;2024-01-30T01:32:11;9.40;;;5.60;;
22531;SDS011;11432;46.924;7.114;2024-01-30T01:34:37;7.80;;;5.75;;
22531;SDS011;11432;46.924;7.114;2024-01-30T01:37:03;10.60;;;6.07;;
22531;SDS011;11432;46.924;7.114;2024-01-30T01:39:28;9.90;;;6.18;;
22531;SDS011;11432;46.924;7.114;2024-01-30T01:41:54;10.05;;;6.10;;
22531;SDS011;11432;46.924;7.114;2024-01-30T01:44:19;8.05;;;5.80;;
22531;SDS011;11432;46.924;7.114;2024-01-30T01:46:45;8.93;;;6.10;;
22531;SDS011;11432;46.924;7.114;2024-01-30T01:49:10;7.57;;;5.78;;
22531;SDS011;11432;46.924;7.114;2024-01-30T01:51:36;9.18;;;5.95;;
22531;SDS011;11432;46.924;7.114;2024-01-30T01:54:04;9.20;;;5.78;;
22531;SDS011;11432;46.924;7.114;2024-01-30T01:56:31;8.93;;;5.85;;
22531;SDS011;11432;46.924;7.114;2024-01-30T01:59:04;9.70;;;6.25;;
22531;SDS011;11432;46.924;7.114;2024-01-30T02:01:32;7.00;;;5.28;;
22531;SDS011;11432;46.924;7.114;2024-01-30T02:03:59;13.00;;;5.88;;
22531;SDS011;11432;46.924;7.114;2024-01-30T02:06:25;9.00;;;5.80;;
22531;SDS011;11432;46.924;7.114;2024-01-30T02:08:51;8.10;;;5.60;;
22531;SDS011;11432;46.924;7.114;2024-01-30T02:11:17;7.50;;;5.50;;
22531;SDS011;11432;46.924;7.114;2024-01-30T02:13:43;7.47;;;5.38;;
22531;SDS011;11432;46.924;7.114;2024-01-30T02:16:09;10.43;;;6.07;;
22531;SDS011;11432;46.924;7.114;2024-01-30T02:18:35;9.48;;;5.53;;
22531;SDS011;11432;46.924;7.114;2024-01-30T02:21:06;7.03;;;5.13;;
22531;SDS011;11432;46.924;7.114;2024-01-30T02:23:32;7.93;;;5.20;;
22531;SDS011;11432;46.924;7.114;2024-01-30T02:25:59;9.38;;;5.47;;
22531;SDS011;11432;46.924;7.114;2024-01-30T02:28:25;8.32;;;5.90;;
22531;SDS011;11432;46.924;7.114;2024-01-30T02:30:51;11.07;;;6.57;;
22531;SDS011;11432;46.924;7.114;2024-01-30T02:33:16;10.75;;;6.07;;
22531;SDS011;11432;46.924;7.114;2024-01-30T02:35:42;10.10;;;6.15;;
22531;SDS011;11432;46.924;7.114;2024-01-30T02:38:08;8.98;;;5.68;;
22531;SDS011;11432;46.924;7.114;2024-01-30T02:40:33;10.65;;;5.85;;
22531;SDS011;11432;46.924;7.114;2024-01-30T02:42:59;8.40;;;5.88;;
22531;SDS011;11432;46.924;7.114;2024-01-30T02:45:26;8.85;;;6.22;;
22531;SDS011;11432;46.924;7.114;2024-01-30T02:47:52;8.77;;;5.70;;
22531;SDS011;11432;46.924;7.114;2024-01-30T02:50:17;8.40;;;5.95;;
22531;SDS011;11432;46.924;7.114;2024-01-30T02:52:43;11.48;;;5.78;;
22531;SDS011;11432;46.924;7.114;2024-01-30T02:55:09;8.95;;;5.60;;
22531;SDS011;11432;46.924;7.114;2024-01-30T02:57:35;9.13;;;5.57;;
22531;SDS011;11432;46.924;7.114;2024-01-30T03:00:00;8.73;;;5.30;;
22531;SDS011;11432;46.924;7.114;2024-01-30T03:02:26;7.65;;;5.60;;
22531;SDS011;11432;46.924;7.114;2024-01-30T03:04:52;6.40;;;4.63;;
22531;SDS011;11432;46.924;7.114;2024-01-30T03:07:17;7.60;;;4.72;;
22531;SDS011;11432;46.924;7.114;2024-01-30T03:09:43;8.43;;;5.05;;
22531;SDS011;11432;46.924;7.114;2024-01-30T03:12:09;8.80;;;5.45;;
22531;SDS011;11432;46.924;7.114;2024-01-30T03:14:35;7.90;;;4.90;;
22531;SDS011;11432;46.924;7.114;2024-01-30T03:17:00;8.05;;;5.00;;
22531;SDS011;11432;46.924;7.114;2024-01-30T03:19:26;8.68;;;4.80;;
22531;SDS011;11432;46.924;7.114;2024-01-30T03:21:52;6.72;;;4.85;;
22531;SDS011;11432;46.924;7.114;2024-01-30T03:24:18;6.85;;;5.00;;
22531;SDS011;11432;46.924;7.114;2024-01-30T03:26:44;8.73;;;5.00;;
22531;SDS011;11432;46.924;7.114;2024-01-30T03:29:09;7.43;;;5.28;;
22531;SDS011;11432;46.924;7.114;2024-01-30T03:31:35;8.35;;;5.07;;
22531;SDS011;11432;46.924;7.114;2024-01-30T03:34:01;7.63;;;4.97;;
22531;SDS011;11432;46.924;7.114;2024-01-30T03:36:26;7.13;;;4.68;;
22531;SDS011;11432;46.924;7.114;2024-01-30T03:38:52;8.40;;;4.45;;
22531;SDS011;11432;46.924;7.114;2024-01-30T03:41:18;9.25;;;4.40;;
22531;SDS011;11432;46.924;7.114;2024-01-30T03:43:44;6.75;;;4.38;;
22531;SDS011;11432;46.924;7.114;2024-01-30T03:46:11;6.60;;;4.43;;
22531;SDS011;11432;46.924;7.114;2024-01-30T03:48:37;8.43;;;5.25;;
22531;SDS011;11432;46.924;7.114;2024-01-30T03:51:03;8.05;;;4.75;;
22531;SDS011;11432;46.924;7.114;2024-01-30T03:53:29;9.70;;;4.78;;
22531;SDS011;11432;46.924;7.114;2024-01-30T03:55:55;8.45;;;4.55;;
22531;SDS011;11432;46.924;7.114;2024-01-30T03:58:20;8.48;;;5.10;;
22531;SDS011;11432;46.924;7.114;2024-01-30T04:00:46;10.70;;;4.60;;
22531;SDS011;11432;46.924;7.114;2024-01-30T04:03:12;7.30;;;4.75;;
22531;SDS011;11432;46.924;7.114;2024-01-30T04:05:37;6.35;;;4.20;;
22531;SDS011;11432;46.924;7.114;2024-01-30T04:08:03;7.72;;;4.60;;
22531;SDS011;11432;46.924;7.114;2024-01-30T04:10:29;6.70;;;4.55;;
22531;SDS011;11432;46.924;7.114;2024-01-30T04:12:54;7.10;;;3.88;;
22531;SDS011;11432;46.924;7.114;2024-01-30T04:15:20;6.03;;;3.95;;
22531;SDS011;11432;46.924;7.114;2024-01-30T04:17:46;6.45;;;3.50;;
22531;SDS011;11432;46.924;7.114;2024-01-30T04:20:13;6.10;;;3.78;;
22531;SDS011;11432;46.924;7.114;2024-01-30T04:22:45;7.63;;;4.20;;
22531;SDS011;11432;46.924;7.114;2024-01-30T04:25:14;5.13;;;3.80;;
22531;SDS011;11432;46.924;7.114;2024-01-30T04:27:39;6.63;;;3.87;;
22531;SDS011;11432;46.924;7.114;2024-01-30T04:30:05;5.65;;;4.18;;
22531;SDS011;11432;46.924;7.114;2024-01-30T04:32:31;5.15;;;3.72;;
22531;SDS011;11432;46.924;7.114;2024-01-30T04:34:57;7.43;;;3.80;;
22531;SDS011;11432;46.924;7.114;2024-01-30T04:37:23;6.35;;;3.95;;
22531;SDS011;11432;46.924;7.114;2024-01-30T04:39:49;5.22;;;3.80;;
22531;SDS011;11432;46.924;7.114;2024-01-30T04:42:16;5.07;;;3.55;;
22531;SDS011;11432;46.924;7.114;2024-01-30T04:44:42;6.13;;;3.42;;
22531;SDS011;11432;46.924;7.114;2024-01-30T04:47:07;5.57;;;3.47;;
22531;SDS011;11432;46.924;7.114;2024-01-30T04:49:35;5.75;;;3.70;;
22531;SDS011;11432;46.924;7.114;2024-01-30T04:52:00;5.20;;;3.53;;
22531;SDS011;11432;46.924;7.114;2024-01-30T04:54:26;5.97;;;3.35;;
22531;SDS011;11432;46.924;7.114;2024-01-30T04:56:52;7.30;;;3.90;;
22531;SDS011;11432;46.924;7.114;2024-01-30T04:59:17;5.93;;;3.63;;
22531;SDS011;11432;46.924;7.114;2024-01-30T05:01:43;7.57;;;3.97;;
22531;SDS011;11432;46.924;7.114;2024-01-30T05:04:09;7.53;;;3.40;;
22531;SDS011;11432;46.924;7.114;2024-01-30T05:06:36;7.75;;;3.35;;
22531;SDS011;11432;46.924;7.114;2024-01-30T05:09:01;5.72;;;3.30;;
22531;SDS011;11432;46.924;7.114;2024-01-30T05:11:29;7.20;;;3.78;;
22531;SDS011;11432;46.924;7.114;2024-01-30T05:13:55;6.93;;;4.32;;
22531;SDS011;11432;46.924;7.114;2024-01-30T05:16:21;5.18;;;3.40;;
22531;SDS011;11432;46.924;7.114;2024-01-30T05:18:46;6.20;;;3.50;;
22531;SDS011;11432;46.924;7.114;2024-01-30T05:21:12;4.55;;;3.30;;
22531;SDS011;11432;46.924;7.114;2024-01-30T05:23:37;5.70;;;3.53;;
22531;SDS011;11432;46.924;7.114;2024-01-30T05:26:03;4.05;;;3.00;;
22531;SDS011;11432;46.924;7.114;2024-01-30T05:28:29;4.20;;;3.03;;
22531;SDS011;11432;46.924;7.114;2024-01-30T05:30:55;4.85;;;3.20;;
22531;SDS011;11432;46.924;7.114;2024-01-30T05:33:21;5.85;;;3.58;;
22531;SDS011;11432;46.924;7.114;2024-01-30T05:35:47;7.32;;;3.47;;
22531;SDS011;11432;46.924;7.114;2024-01-30T05:38:13;5.30;;;3.40;;
22531;SDS011;11432;46.924;7.114;2024-01-30T05:40:40;5.55;;;3.50;;
22531;SDS011;11432;46.924;7.114;2024-01-30T05:43:05;8.57;;;3.75;;
22531;SDS011;11432;46.924;7.114;2024-01-30T05:45:32;6.38;;;3.80;;
22531;SDS011;11432;46.924;7.114;2024-01-30T05:48:00;6.32;;;3.40;;
22531;SDS011;11432;46.924;7.114;2024-01-30T05:50:25;7.25;;;4.45;;
22531;SDS011;11432;46.924;7.114;2024-01-30T05:52:51;5.97;;;3.40;;
22531;SDS011;11432;46.924;7.114;2024-01-30T05:55:17;9.18;;;3.65;;
22531;SDS011;11432;46.924;7.114;2024-01-30T05:57:43;6.03;;;3.75;;
22531;SDS011;11432;46.924;7.114;2024-01-30T06:00:08;6.18;;;3.80;;
22531;SDS011;11432;46.924;7.114;2024-01-30T06:02:34;5.75;;;3.72;;
22531;SDS011;11432;46.924;7.114;2024-01-30T06:05:00;5.78;;;3.90;;
22531;SDS011;11432;46.924;7.114;2024-01-30T06:07:26;10.43;;;4.30;;
22531;SDS011;11432;46.924;7.114;2024-01-30T06:09:51;6.00;;;3.88;;
22531;SDS011;11432;46.924;7.114;2024-01-30T06:12:17;6.60;;;4.15;;
22531;SDS011;11432;46.924;7.114;2024-01-30T06:14:42;5.88;;;4.03;;
22531;SDS011;11432;46.924;7.114;2024-01-30T06:17:08;5.72;;;4.05;;
22531;SDS011;11432;46.924;7.114;2024-01-30T06:19:34;5.45;;;3.45;;
22531;SDS011;11432;46.924;7.114;2024-01-30T06:22:00;9.65;;;4.70;;
22531;SDS011;11432;46.924;7.114;2024-01-30T06:24:26;7.10;;;4.53;;
22531;SDS011;11432;46.924;7.114;2024-01-30T06:26:52;7.65;;;4.50;;
22531;SDS011;11432;46.924;7.114;2024-01-30T06:29:18;8.43;;;4.30;;
22531;SDS011;11432;46.924;7.114;2024-01-30T06:31:43;5.85;;;4.00;;
22531;SDS011;11432;46.924;7.114;2024-01-30T06:34:09;7.30;;;4.25;;
22531;SDS011;11432;46.924;7.114;2024-01-30T06:36:36;6.90;;;4.30;;
22531;SDS011;11432;46.924;7.114;2024-01-30T06:39:02;8.70;;;4.47;;
22531;SDS011;11432;46.924;7.114;2024-01-30T06:41:28;8.88;;;4.93;;
22531;SDS011;11432;46.924;7.114;2024-01-30T06:43:54;8.77;;;4.75;;
22531;SDS011;11432;46.924;7.114;2024-01-30T06:46:20;8.23;;;5.38;;
22531;SDS011;11432;46.924;7.114;2024-01-30T06:48:46;7.28;;;4.78;;
22531;SDS011;11432;46.924;7.114;2024-01-30T06:51:11;9.88;;;4.30;;
22531;SDS011;11432;46.924;7.114;2024-01-30T06:53:37;24.25;;;5.15;;
22531;SDS011;11432;46.924;7.114;2024-01-30T06:56:03;21.80;;;4.90;;
22531;SDS011;11432;46.924;7.114;2024-01-30T06:58:29;15.18;;;4.72;;
22531;SDS011;11432;46.924;7.114;2024-01-30T07:00:55;13.85;;;4.40;;
22531;SDS011;11432;46.924;7.114;2024-01-30T07:03:21;17.75;;;5.32;;
22531;SDS011;11432;46.924;7.114;2024-01-30T07:05:47;15.30;;;4.80;;
22531;SDS011;11432;46.924;7.114;2024-01-30T07:08:13;19.95;;;5.60;;
22531;SDS011;11432;46.924;7.114;2024-01-30T07:10:38;11.48;;;5.00;;
22531;SDS011;11432;46.924;7.114;2024-01-30T07:13:04;12.80;;;4.40;;
22531;SDS011;11432;46.924;7.114;2024-01-30T07:15:30;8.77;;;3.90;;
22531;SDS011;11432;46.924;7.114;2024-01-30T07:17:56;9.55;;;4.20;;
22531;SDS011;11432;46.924;7.114;2024-01-30T07:20:22;17.58;;;4.65;;
22531;SDS011;11432;46.924;7.114;2024-01-30T07:22:47;15.25;;;4.85;;
22531;SDS011;11432;46.924;7.114;2024-01-30T07:25:13;16.85;;;4.68;;
22531;SDS011;11432;46.924;7.114;2024-01-30T07:27:39;16.88;;;4.80;;
22531;SDS011;11432;46.924;7.114;2024-01-30T07:30:05;23.35;;;5.07;;
22531;SDS011;11432;46.924;7.114;2024-01-30T07:32:31;9.77;;;4.32;;
22531;SDS011;11432;46.924;7.114;2024-01-30T07:34:57;10.38;;;4.32;;
22531;SDS011;11432;46.924;7.114;2024-01-30T07:37:22;10.20;;;4.18;;
22531;SDS011;11432;46.924;7.114;2024-01-30T07:39:48;9.88;;;3.78;;
22531;SDS011;11432;46.924;7.114;2024-01-30T07:42:13;10.00;;;3.95;;
22531;SDS011;11432;46.924;7.114;2024-01-30T07:44:39;10.02;;;3.92;;
22531;SDS011;11432;46.924;7.114;2024-01-30T07:47:05;7.15;;;3.63;;
22531;SDS011;11432;46.924;7.114;2024-01-30T07:49:31;15.35;;;4.05;;
22531;SDS011;11432;46.924;7.114;2024-01-30T07:51:57;14.80;;;4.57;;
22531;SDS011;11432;46.924;7.114;2024-01-30T07:54:23;8.77;;;3.90;;
22531;SDS011;11432;46.924;7.114;2024-01-30T07:56:49;9.23;;;4.18;;
22531;SDS011;11432;46.924;7.114;2024-01-30T07:59:14;9.13;;;4.20;;
22531;SDS011;11432;46.924;7.114;2024-01-30T08:01:40;8.80;;;5.45;;
22531;SDS011;11432;46.924;7.114;2024-01-30T08:04:06;9.45;;;5.43;;
22531;SDS011;11432;46.924;7.114;2024-01-30T08:06:31;10.63;;;5.68;;
22531;SDS011;11432;46.924;7.114;2024-01-30T08:08:57;8.27;;;5.70;;
22531;SDS011;11432;46.924;7.114;2024-01-30T08:11:24;10.55;;;5.85;;
22531;SDS011;11432;46.924;7.114;2024-01-30T08:13:52;11.43;;;5.43;;
22531;SDS011;11432;46.924;7.114;2024-01-30T08:16:18;13.68;;;5.30;;
22531;SDS011;11432;46.924;7.114;2024-01-30T08:18:43;14.88;;;5.20;;
22531;SDS011;11432;46.924;7.114;2024-01-30T08:21:09;14.40;;;5.55;;
22531;SDS011;11432;46.924;7.114;2024-01-30T08:23:35;10.27;;;5.90;;
22531;SDS011;11432;46.924;7.114;2024-01-30T08:26:00;8.95;;;6.07;;
22531;SDS011;11432;46.924;7.114;2024-01-30T08:28:26;7.85;;;5.43;;
22531;SDS011;11432;46.924;7.114;2024-01-30T08:30:52;9.57;;;5.85;;
22531;SDS011;11432;46.924;7.114;2024-01-30T08:33:17;8.82;;;6.38;;
22531;SDS011;11432;46.924;7.114;2024-01-30T08:35:43;9.65;;;6.32;;
22531;SDS011;11432;46.924;7.114;2024-01-30T08:38:09;10.77;;;6.47;;
22531;SDS011;11432;46.924;7.114;2024-01-30T08:40:34;12.82;;;6.95;;
22531;SDS011;11432;46.924;7.114;2024-01-30T08:43:00;10.40;;;6.88;;
22531;SDS011;11432;46.924;7.114;2024-01-30T08:45:25;10.07;;;6.82;;
22531;SDS011;11432;46.924;7.114;2024-01-30T08:47:51;10.15;;;7.10;;
22531;SDS011;11432;46.924;7.114;2024-01-30T08:50:17;10.45;;;6.75;;
22531;SDS011;11432;46.924;7.114;2024-01-30T08:52:42;11.57;;;6.97;;
22531;SDS011;11432;46.924;7.114;2024-01-30T08:55:08;11.18;;;6.47;;
22531;SDS011;11432;46.924;7.114;2024-01-30T08:57:34;13.32;;;7.57;;
22531;SDS011;11432;46.924;7.114;2024-01-30T09:00:00;11.27;;;7.00;;
22531;SDS011;11432;46.924;7.114;2024-01-30T09:02:28;11.90;;;6.78;;
22531;SDS011;11432;46.924;7.114;2024-01-30T09:04:53;10.30;;;6.78;;
22531;SDS011;11432;46.924;7.114;2024-01-30T09:07:19;13.43;;;7.25;;
22531;SDS011;11432;46.924;7.114;2024-01-30T09:09:45;12.85;;;7.30;;
22531;SDS011;11432;46.924;7.114;2024-01-30T09:12:10;10.32;;;7.00;;
22531;SDS011;11432;46.924;7.114;2024-01-30T09:14:37;11.05;;;7.07;;
22531;SDS011;11432;46.924;7.114;2024-01-30T09:17:04;11.50;;;7.28;;
22531;SDS011;11432;46.924;7.114;2024-01-30T09:19:30;12.45;;;7.38;;
22531;SDS011;11432;46.924;7.114;2024-01-30T09:21:55;13.70;;;7.20;;
22531;SDS011;11432;46.924;7.114;2024-01-30T09:24:21;12.77;;;6.75;;
22531;SDS011;11432;46.924;7.114;2024-01-30T09:26:47;14.57;;;7.03;;
22531;SDS011;11432;46.924;7.114;2024-01-30T09:29:12;10.45;;;6.93;;
22531;SDS011;11432;46.924;7.114;2024-01-30T09:31:38;11.50;;;6.70;;
22531;SDS011;11432;46.924;7.114;2024-01-30T09:34:03;10.57;;;6.63;;
22531;SDS011;11432;46.924;7.114;2024-01-30T09:36:29;8.48;;;6.15;;
22531;SDS011;11432;46.924;7.114;2024-01-30T09:38:54;11.73;;;6.47;;
22531;SDS011;11432;46.924;7.114;2024-01-30T09:41:20;11.77;;;6.70;;
22531;SDS011;11432;46.924;7.114;2024-01-30T09:43:49;11.80;;;6.85;;
22531;SDS011;11432;46.924;7.114;2024-01-30T09:46:16;9.82;;;6.15;;
22531;SDS011;11432;46.924;7.114;2024-01-30T09:48:48;13.50;;;6.60;;
22531;SDS011;11432;46.924;7.114;2024-01-30T09:51:14;11.95;;;6.30;;
22531;SDS011;11432;46.924;7.114;2024-01-30T09:53:42;7.00;;;5.43;;
22531;SDS011;11432;46.924;7.114;2024-01-30T09:56:08;10.02;;;6.35;;
22531;SDS011;11432;46.924;7.114;2024-01-30T09:58:34;8.73;;;6.18;;
22531;SDS011;11432;46.924;7.114;2024-01-30T10:00:59;9.25;;;6.50;;
22531;SDS011;11432;46.924;7.114;2024-01-30T10:03:25;10.00;;;6.10;;
22531;SDS011;11432;46.924;7.114;2024-01-30T10:05:52;9.32;;;6.05;;
22531;SDS011;11432;46.924;7.114;2024-01-30T10:08:18;8.23;;;5.85;;
22531;SDS011;11432;46.924;7.114;2024-01-30T10:10:47;9.13;;;6.43;;
22531;SDS011;11432;46.924;7.114;2024-01-30T10:13:13;8.75;;;6.35;;
22531;SDS011;11432;46.924;7.114;2024-01-30T10:15:38;11.18;;;6.68;;
22531;SDS011;11432;46.924;7.114;2024-01-30T10:18:05;12.15;;;7.35;;
22531;SDS011;11432;46.924;7.114;2024-01-30T10:20:31;10.05;;;6.53;;
22531;SDS011;11432;46.924;7.114;2024-01-30T10:22:57;11.98;;;7.03;;
22531;SDS011;11432;46.924;7.114;2024-01-30T10:25:23;9.30;;;6.68;;
22531;SDS011;11432;46.924;7.114;2024-01-30T10:27:53;12.63;;;6.68;;
22531;SDS011;11432;46.924;7.114;2024-01-30T10:30:22;12.20;;;6.95;;
22531;SDS011;11432;46.924;7.114;2024-01-30T10:32:48;10.05;;;6.97;;
22531;SDS011;11432;46.924;7.114;2024-01-30T10:35:13;10.38;;;7.50;;
22531;SDS011;11432;46.924;7.114;2024-01-30T10:37:39;11.13;;;7.53;;
22531;SDS011;11432;46.924;7.114;2024-01-30T10:40:08;11.02;;;7.25;;
22531;SDS011;11432;46.924;7.114;2024-01-30T10:45:08;11.75;;;7.53;;
22531;SDS011;11432;46.924;7.114;2024-01-30T10:47:39;13.73;;;8.45;;
22531;SDS011;11432;46.924;7.114;2024-01-30T10:50:07;13.02;;;7.75;;
22531;SDS011;11432;46.924;7.114;2024-01-30T10:55:01;10.50;;;7.35;;
22531;SDS011;11432;46.924;7.114;2024-01-30T10:57:31;11.90;;;6.68;;
22531;SDS011;11432;46.924;7.114;2024-01-30T10:59:59;12.30;;;7.28;;
22531;SDS011;11432;46.924;7.114;2024-01-30T11:02:30;10.38;;;7.32;;
22531;SDS011;11432;46.924;7.114;2024-01-30T11:04:57;11.57;;;7.38;;
22531;SDS011;11432;46.924;7.114;2024-01-30T11:07:25;11.80;;;7.20;;
22531;SDS011;11432;46.924;7.114;2024-01-30T11:09:53;15.65;;;7.53;;
22531;SDS011;11432;46.924;7.114;2024-01-30T11:15:02;13.23;;;6.95;;
22531;SDS011;11432;46.924;7.114;2024-01-30T11:17:44;11.73;;;7.70;;
22531;SDS011;11432;46.924;7.114;2024-01-30T11:22:53;11.60;;;7.35;;
22531;SDS011;11432;46.924;7.114;2024-01-30T11:25:21;9.13;;;7.05;;
22531;SDS011;11432;46.924;7.114;2024-01-30T11:27:49;11.75;;;7.32;;
22531;SDS011;11432;46.924;7.114;2024-01-30T11:35:56;9.80;;;6.90;;
22531;SDS011;11432;46.924;7.114;2024-01-30T11:38:25;11.10;;;6.97;;
22531;SDS011;11432;46.924;7.114;2024-01-30T11:40:52;9.27;;;6.45;;
22531;SDS011;11432;46.924;7.114;2024-01-30T11:43:19;10.35;;;7.25;;
22531;SDS011;11432;46.924;7.114;2024-01-30T11:45:45;11.25;;;7.55;;
22531;SDS011;11432;46.924;7.114;2024-01-30T11:48:11;12.40;;;7.43;;
22531;SDS011;11432;46.924;7.114;2024-01-30T11:50:38;11.07;;;7.07;;
22531;SDS011;11432;46.924;7.114;2024-01-30T11:53:04;13.73;;;7.68;;
22531;SDS011;11432;46.924;7.114;2024-01-30T11:55:30;11.93;;;7.35;;
22531;SDS011;11432;46.924;7.114;2024-01-30T11:57:56;11.43;;;7.00;;
22531;SDS011;11432;46.924;7.114;2024-01-30T12:00:23;12.32;;;7.47;;
22531;SDS011;11432;46.924;7.114;2024-01-30T12:02:54;13.93;;;8.20;;
22531;SDS011;11432;46.924;7.114;2024-01-30T12:05:25;15.20;;;8.55;;
22531;SDS011;11432;46.924;7.114;2024-01-30T12:07:51;20.20;;;11.63;;
22531;SDS011;11432;46.924;7.114;2024-01-30T12:10:17;13.98;;;10.02;;
22531;SDS011;11432;46.924;7.114;2024-01-30T12:12:45;17.00;;;10.10;;
22531;SDS011;11432;46.924;7.114;2024-01-30T12:17:38;17.35;;;11.10;;
22531;SDS011;11432;46.924;7.114;2024-01-30T12:20:07;15.55;;;10.80;;
22531;SDS011;11432;46.924;7.114;2024-01-30T12:22:38;16.88;;;11.02;;
22531;SDS011;11432;46.924;7.114;2024-01-30T12:25:07;18.27;;;11.65;;
22531;SDS011;11432;46.924;7.114;2024-01-30T12:27:37;23.85;;;11.93;;
22531;SDS011;11432;46.924;7.114;2024-01-30T12:30:10;17.50;;;12.27;;
22531;SDS011;11432;46.924;7.114;2024-01-30T12:32:42;16.90;;;11.45;;
22531;SDS011;11432;46.924;7.114;2024-01-30T12:35:14;21.38;;;12.70;;
22531;SDS011;11432;46.924;7.114;2024-01-30T12:37:42;17.02;;;12.35;;
22531;SDS011;11432;46.924;7.114;2024-01-30T12:40:09;19.23;;;12.70;;
22531;SDS011;11432;46.924;7.114;2024-01-30T12:42:36;17.58;;;11.55;;
22531;SDS011;11432;46.924;7.114;2024-01-30T12:45:02;19.40;;;11.57;;
22531;SDS011;11432;46.924;7.114;2024-01-30T12:47:29;18.92;;;11.23;;
22531;SDS011;11432;46.924;7.114;2024-01-30T12:49:54;17.70;;;12.02;;
22531;SDS011;11432;46.924;7.114;2024-01-30T12:52:20;18.45;;;11.57;;
22531;SDS011;11432;46.924;7.114;2024-01-30T12:54:47;16.77;;;10.68;;
22531;SDS011;11432;46.924;7.114;2024-01-30T12:57:13;14.05;;;9.07;;
22531;SDS011;11432;46.924;7.114;2024-01-30T12:59:39;15.43;;;10.73;;
22531;SDS011;11432;46.924;7.114;2024-01-30T13:02:04;12.95;;;9.93;;
22531;SDS011;11432;46.924;7.114;2024-01-30T13:04:30;15.68;;;10.52;;
22531;SDS011;11432;46.924;7.114;2024-01-30T13:06:56;16.85;;;10.90;;
22531;SDS011;11432;46.924;7.114;2024-01-30T13:09:23;16.83;;;11.07;;
22531;SDS011;11432;46.924;7.114;2024-01-30T13:11:49;16.15;;;10.60;;
22531;SDS011;11432;46.924;7.114;2024-01-30T13:14:16;16.50;;;11.20;;
22531;SDS011;11432;46.924;7.114;2024-01-30T13:16:42;18.75;;;12.50;;
22531;SDS011;11432;46.924;7.114;2024-01-30T13:19:08;19.50;;;11.35;;
22531;SDS011;11432;46.924;7.114;2024-01-30T13:21:33;21.05;;;13.48;;
22531;SDS011;11432;46.924;7.114;2024-01-30T13:23:59;17.98;;;12.13;;
22531;SDS011;11432;46.924;7.114;2024-01-30T13:26:25;16.00;;;10.57;;
22531;SDS011;11432;46.924;7.114;2024-01-30T13:28:51;20.67;;;12.65;;
22531;SDS011;11432;46.924;7.114;2024-01-30T13:31:16;17.10;;;11.68;;
22531;SDS011;11432;46.924;7.114;2024-01-30T13:33:42;22.55;;;12.57;;
22531;SDS011;11432;46.924;7.114;2024-01-30T13:36:10;19.10;;;12.68;;
22531;SDS011;11432;46.924;7.114;2024-01-30T13:38:36;21.38;;;12.50;;
22531;SDS011;11432;46.924;7.114;2024-01-30T13:41:02;25.25;;;13.82;;
22531;SDS011;11432;46.924;7.114;2024-01-30T13:43:28;22.15;;;13.40;;
22531;SDS011;11432;46.924;7.114;2024-01-30T13:45:54;20.55;;;13.13;;
22531;SDS011;11432;46.924;7.114;2024-01-30T13:48:20;18.52;;;11.93;;
22531;SDS011;11432;46.924;7.114;2024-01-30T13:50:45;19.85;;;12.88;;
22531;SDS011;11432;46.924;7.114;2024-01-30T13:53:11;18.85;;;12.68;;
22531;SDS011;11432;46.924;7.114;2024-01-30T13:55:37;20.63;;;14.07;;
22531;SDS011;11432;46.924;7.114;2024-01-30T13:58:04;17.45;;;12.02;;
22531;SDS011;11432;46.924;7.114;2024-01-30T14:00:30;17.17;;;12.48;;
22531;SDS011;11432;46.924;7.114;2024-01-30T14:02:55;19.60;;;13.00;;
22531;SDS011;11432;46.924;7.114;2024-01-30T14:05:22;19.92;;;12.98;;
22531;SDS011;11432;46.924;7.114;2024-01-30T14:07:48;17.77;;;12.50;;
22531;SDS011;11432;46.924;7.114;2024-01-30T14:10:15;19.58;;;12.55;;
22531;SDS011;11432;46.924;7.114;2024-01-30T14:12:41;19.83;;;12.68;;
22531;SDS011;11432;46.924;7.114;2024-01-30T14:15:08;18.48;;;12.27;;
22531;SDS011;11432;46.924;7.114;2024-01-30T14:17:37;18.20;;;12.63;;
22531;SDS011;11432;46.924;7.114;2024-01-30T14:20:03;20.52;;;12.50;;
22531;SDS011;11432;46.924;7.114;2024-01-30T14:22:30;19.63;;;12.18;;
22531;SDS011;11432;46.924;7.114;2024-01-30T14:24:56;19.13;;;12.13;;
22531;SDS011;11432;46.924;7.114;2024-01-30T14:27:21;19.90;;;12.88;;
22531;SDS011;11432;46.924;7.114;2024-01-30T14:29:47;17.80;;;12.35;;
22531;SDS011;11432;46.924;7.114;2024-01-30T14:32:13;19.05;;;11.77;;
22531;SDS011;11432;46.924;7.114;2024-01-30T14:34:38;19.58;;;12.73;;
22531;SDS011;11432;46.924;7.114;2024-01-30T14:37:04;19.48;;;12.57;;
22531;SDS011;11432;46.924;7.114;2024-01-30T14:39:30;18.45;;;12.48;;
22531;SDS011;11432;46.924;7.114;2024-01-30T14:41:56;18.60;;;11.73;;
22531;SDS011;11432;46.924;7.114;2024-01-30T14:44:22;19.45;;;12.88;;
22531;SDS011;11432;46.924;7.114;2024-01-30T14:46:48;17.02;;;12.20;;
22531;SDS011;11432;46.924;7.114;2024-01-30T14:49:14;20.75;;;11.77;;
22531;SDS011;11432;46.924;7.114;2024-01-30T14:51:40;17.25;;;12.25;;